Terminal Aerodrome Forecast
Issued by NWS Albany, NY

Home | Current Version | Previous Version | Text Only | Print | Product List | Glossary On
Versions: 1 2 3 4 5 6 7 8 9 10 11 12 13 14 15 16
000
FTUS41 KALY 131700 CCB
TAFPOU
TAF COR
KPOU 131747Z 1318/1418 20010KT P6SM VCSH BKN035
      TEMPO 1318/1322 2SM -SHRA BR BKN025
     FM132200 19009KT 6SM BR VCSH OVC025
      TEMPO 1322/1324 2SM -SHRA BR OVC010
     FM140000 20005KT 3SM BR VCSH SCT008 OVC020
     FM140600 VRB03KT 3SM BR BKN008 OVC020
     FM141200 19006KT P6SM BKN025 OVC050=

USA.gov is the U.S. government's official web portal to all federal, state and local government web resources and services.